Date,TemperatureHighF,TemperatureAvgF,TemperatureLowF,DewpointHighF,DewpointAvgF,DewpointLowF,HumidityHigh,HumidityAvg,HumidityLow,PressureMaxIn,PressureMinIn,WindSpeedMaxMPH,WindSpeedAvgMPH,GustSpeedMaxMPH,PrecipitationSumIn
2013-12-1,55.8,44.9,29.8,23.4,15.6,6.8,61,33,17,30.16,29.88,21,5,21,0.00
2013-12-2,60.3,51.3,42.8,23.4,17.0,9.9,43,26,14,29.91,23.67,37,8,37,0.02
2013-12-3,55.0,35.1,9.7,29.4,14.6,2.6,81,49,19,29.79,29.56,21,6,21,0.00
2013-12-4,11.7,5.9,-0.8,3.2,-2.8,-11.7,75,67,57,30.02,29.76,10,3,10,0.00
2013-12-5,7.0,0.8,-7.1,-4.1,-10.7,-16.0,70,59,40,30.04,29.93,10,2,10,0.00
2013-12-6,8.6,-0.5,-6.7,-7.4,-11.5,-16.0,67,59,43,30.13,30.03,8,2,8,0.00
2013-12-7,10.0,0.9,-5.3,-2.8,-9.5,-14.6,69,61,49,30.11,29.75,6,1,6,0.00
2013-12-8,19.6,7.9,1.6,3.5,-2.2,-6.2,72,63,44,29.98,29.70,10,2,10,0.00
2013-12-9,25.9,12.6,-3.6,0.7,-10.2,-19.3,68,39,17,30.08,29.93,25,4,25,0.00
2013-12-10,46.6,33.1,19.4,11.2,1.2,-11.6,52,27,17,30.19,29.89,31,7,31,0.04
2013-12-11,29.7,19.8,12.2,14.0,9.7,4.7,79,65,49,30.26,30.18,9,2,9,0.00
2013-12-12,53.4,31.8,16.5,18.6,10.1,2.6,77,44,18,30.23,29.93,8,2,8,0.00
2013-12-13,51.3,34.8,24.4,18.9,10.4,0.0,57,38,17,30.13,29.86,12,3,12,0.00
2013-12-14,45.7,33.7,21.6,17.2,9.6,2.4,67,40,17,30.22,30.12,20,4,20,0.00
2013-12-15,55.9,46.2,31.6,16.2,10.7,3.6,45,25,15,30.14,30.07,30,7,30,0.00
2013-12-16,63.9,50.4,37.9,13.9,8.4,1.1,28,18,13,30.22,30.07,26,6,26,0.00
2013-12-17,63.7,49.5,31.1,14.0,9.8,0.8,43,21,13,30.27,30.07,21,5,21,0.00
2013-12-18,64.9,56.7,46.8,15.0,10.1,6.9,21,16,12,30.07,29.77,22,7,22,0.00
2013-12-19,51.4,33.6,14.7,24.6,17.0,7.1,91,55,18,29.89,29.63,15,4,15,0.00
2013-12-20,21.7,17.8,14.2,17.5,14.1,11.2,90,85,81,29.88,29.68,8,2,8,0.00
2013-12-21,31.5,22.0,14.2,21.5,16.6,10.2,94,80,55,29.89,29.59,14,2,14,0.00
2013-12-22,38.7,26.6,16.0,20.7,12.7,-0.4,87,61,21,30.18,29.89,16,3,16,0.01
2013-12-23,46.4,27.9,14.9,24.9,16.7,10.7,86,65,28,30.22,30.07,17,3,17,0.01
2013-12-24,52.0,39.8,24.3,29.9,13.1,-5.8,58,35,18,30.24,29.96,26,7,26,0.00
2013-12-25,45.1,32.7,18.5,11.2,2.1,-8.6,65,31,16,30.32,30.14,15,3,15,0.00
2013-12-26,55.0,43.3,30.4,11.0,4.9,-5.4,42,21,15,30.26,30.14,20,4,20,0.00
2013-12-27,59.4,42.5,30.4,19.5,15.2,9.9,51,35,17,30.24,30.04,8,2,8,0.00
2013-12-28,59.7,38.0,19.0,23.5,18.1,10.9,86,49,17,30.19,29.89,15,4,15,0.00
2013-12-29,39.4,25.3,11.3,18.1,8.7,-2.9,83,54,18,30.19,29.89,17,3,17,0.05
2013-12-30,50.0,38.9,30.7,11.7,5.7,-1.5,43,25,17,30.17,29.95,16,5,16,0.00
2013-12-31,57.2,45.4,32.4,19.3,12.8,5.1,47,28,17,30.06,29.92,18,5,18,0.00